Time;durP1;ratioP1;P1;durP2;ratioP2;P2;SDS_P1;SDS_P2;PMS_P1;PMS_P2;Temp;Humidity;BMP_temperature;BMP_pressure;BME280_temperature;BME280_humidity;BME280_pressure;Samples;Min_cycle;Max_cycle;Signal;HPM_P1;HPM_P2
2021/08/24 00:00:31;;;;;;;;;;;;;;;22.72;27.37;97984.66;4963882;29;959;-80
2021/08/24 00:02:57;;;;;;;;;;;;;;;22.61;27.61;97989.88;4963655;29;835;-79
2021/08/24 00:05:26;;;;;;;;;;;;;;;22.71;27.21;97985.91;4963796;29;1910;-80
2021/08/24 00:07:56;;;;;;;;;;;;;;;22.60;27.37;97982.63;4963384;29;953;-81
2021/08/24 00:10:21;;;;;;;;;;;;;;;22.58;27.30;97985.09;4962887;29;752;-80
2021/08/24 00:12:47;;;;;;;;;;;;;;;22.60;27.14;97988.28;4963120;29;894;-80
2021/08/24 00:15:12;;;;;;;;;;;;;;;22.51;27.37;97994.63;4962395;29;977;-80
2021/08/24 00:17:38;;;;;;;;;;;;;;;22.60;27.37;97989.09;4947926;29;838;-80
2021/08/24 00:20:04;;;;;;;;;;;;;;;22.54;27.70;97990.09;4962359;29;1104;-80
2021/08/24 00:22:29;;;;;;;;;;;;;;;22.59;27.38;97983.88;4963741;29;719;-80
2021/08/24 00:24:55;;;;;;;;;;;;;;;22.70;27.37;97981.50;4948074;29;807;-80
2021/08/24 00:27:20;;;;;;;;;;;;;;;22.59;27.32;97986.72;4962937;29;1906;-80
2021/08/24 00:29:46;;;;;;;;;;;;;;;22.74;27.09;97975.69;4946676;29;1011;-80
2021/08/24 00:32:11;;;;;;;;;;;;;;;22.89;26.94;97982.53;4962759;29;858;-80
2021/08/24 00:34:36;;;;;;;;;;;;;;;22.68;27.13;97978.28;4947021;29;1025;-80
2021/08/24 00:37:02;;;;;;;;;;;;;;;22.64;27.19;97971.97;4962959;29;806;-80
2021/08/24 00:39:28;;;;;;;;;;;;;;;22.32;27.65;97973.72;4962398;29;1193;-80
2021/08/24 00:41:53;;;;;;;;;;;;;;;22.50;27.40;97972.41;4962638;28;744;-80
2021/08/24 00:44:19;;;;;;;;;;;;;;;22.59;27.35;97967.66;4962960;29;1077;-80
2021/08/24 00:46:44;;;;;;;;;;;;;;;22.63;27.35;97967.50;4962273;29;1962;-80
2021/08/24 00:49:15;;;;;;;;;;;;;;;22.60;27.30;97960.72;4962623;29;1001;-80
2021/08/24 00:51:41;;;;;;;;;;;;;;;22.60;27.57;97959.94;4962996;29;748;-80
2021/08/24 00:54:10;;;;;;;;;;;;;;;22.59;27.25;97959.13;4962480;29;844;-80
2021/08/24 00:56:36;;;;;;;;;;;;;;;22.42;27.55;97954.00;4946336;29;862;-80
2021/08/24 00:59:02;;;;;;;;;;;;;;;22.41;27.65;97958.09;4961818;29;963;-80
2021/08/24 01:01:27;;;;;;;;;;;;;;;22.70;27.20;97953.13;4946550;29;1449;-80
2021/08/24 01:03:53;;;;;;;;;;;;;;;22.56;27.53;97953.56;4962362;29;981;-80
2021/08/24 01:06:34;;;;;;;;;;;;;;;22.47;27.42;97959.13;4962533;29;1962;-80
2021/08/24 01:09:06;;;;;;;;;;;;;;;22.49;27.38;97948.91;4947027;29;643;-80
2021/08/24 01:11:35;;;;;;;;;;;;;;;22.56;27.48;97953.56;4947495;29;731;-80
2021/08/24 01:14:00;;;;;;;;;;;;;;;22.66;27.15;97960.94;4961514;29;1146;-80
2021/08/24 01:16:34;;;;;;;;;;;;;;;22.35;27.75;97955.81;4947069;29;940;-80
2021/08/24 01:19:35;;;;;;;;;;;;;;;22.50;27.29;97955.38;4962116;29;1115;-79
2021/08/24 01:22:18;;;;;;;;;;;;;;;22.39;27.49;97954.94;4947493;29;808;-80
2021/08/24 01:24:59;;;;;;;;;;;;;;;22.36;27.64;97954.56;4947038;29;711;-80
2021/08/24 01:27:32;;;;;;;;;;;;;;;22.46;27.54;97949.81;4962882;29;1935;-80
2021/08/24 01:30:01;;;;;;;;;;;;;;;22.41;27.49;97955.25;4946855;29;845;-80
2021/08/24 01:32:27;;;;;;;;;;;;;;;22.51;27.33;97957.75;4947425;29;848;-81
2021/08/24 01:34:59;;;;;;;;;;;;;;;22.35;27.76;97955.81;4961830;29;1040;-80
2021/08/24 01:37:24;;;;;;;;;;;;;;;22.39;27.68;97949.25;4947994;29;760;-80
2021/08/24 01:39:51;;;;;;;;;;;;;;;22.39;27.64;97954.94;4945872;29;811;-80
2021/08/24 01:42:18;;;;;;;;;;;;;;;22.38;27.83;97947.63;4962555;29;1105;-80
2021/08/24 01:44:56;;;;;;;;;;;;;;;22.47;27.40;97950.59;4961474;29;976;-81
2021/08/24 01:47:47;;;;;;;;;;;;;;;22.57;27.18;97940.97;4946801;29;1887;-80
2021/08/24 01:50:15;;;;;;;;;;;;;;;22.53;27.13;97943.91;4946645;29;718;-80
2021/08/24 01:52:48;;;;;;;;;;;;;;;22.53;27.21;97937.44;4961524;28;953;-81
2021/08/24 01:55:16;;;;;;;;;;;;;;;22.43;27.36;97938.56;4961793;29;637;-80
2021/08/24 01:57:56;;;;;;;;;;;;;;;22.48;27.28;97935.19;4961285;29;925;-80
2021/08/24 02:00:21;;;;;;;;;;;;;;;22.38;27.52;97939.13;4961592;29;859;-80
2021/08/24 02:03:07;;;;;;;;;;;;;;;22.40;27.44;97936.66;4961150;29;966;-80
2021/08/24 02:05:46;;;;;;;;;;;;;;;22.38;27.72;97936.31;4945561;29;1895;-81
2021/08/24 02:08:15;;;;;;;;;;;;;;;22.40;27.59;97928.16;4961420;29;768;-80
2021/08/24 02:10:40;;;;;;;;;;;;;;;22.21;27.56;97922.22;4962180;29;843;-80
2021/08/24 02:13:06;;;;;;;;;;;;;;;22.39;27.42;97932.25;4945176;29;872;-80
2021/08/24 02:15:41;;;;;;;;;;;;;;;22.48;27.19;97929.50;4961300;29;1072;-80
2021/08/24 02:18:07;;;;;;;;;;;;;;;22.39;27.48;97932.25;4960545;29;898;-80
2021/08/24 02:20:35;;;;;;;;;;;;;;;22.44;27.22;97929.63;4961566;29;914;-80
2021/08/24 02:23:02;;;;;;;;;;;;;;;22.36;27.49;97929.06;4961519;29;620;-80
2021/08/24 02:25:31;;;;;;;;;;;;;;;22.30;27.34;97930.06;4961079;29;1888;-80
2021/08/24 02:28:04;;;;;;;;;;;;;;;22.40;27.27;97922.50;4961547;29;673;-80
2021/08/24 02:30:29;;;;;;;;;;;;;;;22.45;27.25;97921.94;4961419;29;962;-80
2021/08/24 02:32:55;;;;;;;;;;;;;;;22.42;27.14;97919.97;4960766;29;869;-80
2021/08/24 02:35:41;;;;;;;;;;;;;;;22.61;27.16;97916.13;4961569;29;991;-81
2021/08/24 02:38:13;;;;;;;;;;;;;;;22.59;27.17;97908.09;4938569;28;1020;-80
2021/08/24 02:40:46;;;;;;;;;;;;;;;22.47;27.14;97910.91;4961048;29;925;-80
2021/08/24 02:43:17;;;;;;;;;;;;;;;22.55;27.32;97912.28;4961080;29;627;-80
2021/08/24 02:46:03;;;;;;;;;;;;;;;22.74;26.77;97914.09;4961452;29;1968;-80
2021/08/24 02:48:28;;;;;;;;;;;;;;;22.34;27.06;97908.88;4938259;29;1077;-81
2021/08/24 02:50:54;;;;;;;;;;;;;;;22.30;27.26;97902.53;4945427;29;907;-81
2021/08/24 02:53:21;;;;;;;;;;;;;;;22.30;27.51;97905.34;4960867;29;724;-80
2021/08/24 02:55:47;;;;;;;;;;;;;;;22.40;27.14;97899.81;4961715;29;800;-81
2021/08/24 02:58:12;;;;;;;;;;;;;;;22.48;27.02;97904.00;4961173;29;818;-81
2021/08/24 03:00:38;;;;;;;;;;;;;;;22.52;27.18;97896.16;4946117;29;964;-81
2021/08/24 03:03:03;;;;;;;;;;;;;;;22.48;26.98;97901.16;4945687;29;860;-81
2021/08/24 03:05:29;;;;;;;;;;;;;;;22.32;27.24;97904.88;4962875;28;1962;-81
2021/08/24 03:07:54;;;;;;;;;;;;;;;22.28;27.29;97909.91;4965070;29;930;-81
2021/08/24 03:10:22;;;;;;;;;;;;;;;22.41;27.30;97907.84;4949506;29;839;-81
2021/08/24 03:13:17;;;;;;;;;;;;;;;22.36;27.29;97906.38;4964944;29;747;-81
2021/08/24 03:16:12;;;;;;;;;;;;;;;22.18;27.51;97906.16;4941961;28;1072;-81
2021/08/24 03:18:42;;;;;;;;;;;;;;;22.51;27.03;97905.94;4940710;29;1120;-81
2021/08/24 03:21:08;;;;;;;;;;;;;;;22.58;26.98;97906.47;4965566;29;647;-81
2021/08/24 03:23:36;;;;;;;;;;;;;;;22.33;27.20;97907.28;4948021;29;827;-80
2021/08/24 03:26:01;;;;;;;;;;;;;;;22.24;27.41;97904.34;4965206;29;1969;-81
2021/08/24 03:28:27;;;;;;;;;;;;;;;22.32;27.47;97900.00;4964073;29;896;-81
2021/08/24 03:30:52;;;;;;;;;;;;;;;22.44;26.87;97900.50;4965113;29;1032;-81
2021/08/24 03:33:18;;;;;;;;;;;;;;;22.35;27.17;97904.00;4947520;29;953;-81
2021/08/24 03:35:43;;;;;;;;;;;;;;;22.44;26.93;97906.97;4964938;29;1044;-81
2021/08/24 03:38:08;;;;;;;;;;;;;;;22.58;26.89;97900.81;4964004;29;882;-80
2021/08/24 03:40:34;;;;;;;;;;;;;;;22.44;27.06;97903.34;4964762;29;758;-81
2021/08/24 03:43:00;;;;;;;;;;;;;;;22.41;27.04;97896.50;4964225;29;785;-81
2021/08/24 03:45:26;;;;;;;;;;;;;;;22.49;26.82;97902.75;4964607;29;956;-80
2021/08/24 03:47:51;;;;;;;;;;;;;;;22.38;27.19;97900.25;4964575;29;1973;-81
2021/08/24 03:50:16;;;;;;;;;;;;;;;22.43;26.94;97904.56;4948203;29;836;-81
2021/08/24 03:52:42;;;;;;;;;;;;;;;22.29;27.09;97903.78;4949882;29;719;-80
2021/08/24 03:55:08;;;;;;;;;;;;;;;22.29;27.20;97903.78;4948437;29;731;-81
2021/08/24 03:57:33;;;;;;;;;;;;;;;22.39;27.30;97909.56;4964426;29;867;-81
2021/08/24 03:59:58;;;;;;;;;;;;;;;22.30;27.24;97908.19;4963714;29;1052;-80
2021/08/24 04:02:24;;;;;;;;;;;;;;;22.31;27.18;97898.44;4948958;29;842;-80
2021/08/24 04:04:50;;;;;;;;;;;;;;;22.33;27.21;97907.28;4963714;29;808;-81
2021/08/24 04:07:15;;;;;;;;;;;;;;;22.38;27.29;97910.78;4964717;29;1977;-80
2021/08/24 04:09:41;;;;;;;;;;;;;;;22.43;27.23;97916.69;4964110;29;684;-81
2021/08/24 04:12:06;;;;;;;;;;;;;;;22.39;27.07;97910.34;4949335;29;737;-81
2021/08/24 04:14:32;;;;;;;;;;;;;;;22.40;27.24;97911.16;4948548;29;1054;-80
2021/08/24 04:16:57;;;;;;;;;;;;;;;22.31;27.34;97908.97;4948544;29;864;-81
2021/08/24 04:19:22;;;;;;;;;;;;;;;22.43;27.07;97913.06;4948752;29;1054;-81
2021/08/24 04:21:48;;;;;;;;;;;;;;;22.41;27.09;97912.72;4948478;29;743;-80
2021/08/24 04:24:13;;;;;;;;;;;;;;;22.41;27.03;97910.69;4947871;29;692;-81
2021/08/24 04:26:39;;;;;;;;;;;;;;;22.51;27.19;97911.59;4948550;29;1883;-81
2021/08/24 04:29:04;;;;;;;;;;;;;;;22.45;27.06;97913.41;4947532;29;1043;-81
2021/08/24 04:31:30;;;;;;;;;;;;;;;22.36;27.24;97906.38;4947885;29;921;-81
2021/08/24 04:33:56;;;;;;;;;;;;;;;22.35;27.49;97904.78;4950618;29;1172;-82
2021/08/24 04:36:22;;;;;;;;;;;;;;;22.22;27.77;97906.81;4925151;29;1240;-81
2021/08/24 04:38:47;;;;;;;;;;;;;;;22.14;27.99;97908.28;4949888;29;1192;-82
2021/08/24 04:41:13;;;;;;;;;;;;;;;22.38;27.26;97902.28;4946476;29;1256;-82
2021/08/24 04:43:38;;;;;;;;;;;;;;;22.35;27.31;97913.28;4960758;29;1287;-80
2021/08/24 04:46:04;;;;;;;;;;;;;;;22.42;27.54;97914.31;4944185;29;1903;-81
2021/08/24 04:48:30;;;;;;;;;;;;;;;22.30;27.45;97913.84;4943717;29;1216;-83
2021/08/24 04:50:55;;;;;;;;;;;;;;;22.49;27.55;97914.09;4944903;29;1290;-82
2021/08/24 04:53:22;;;;;;;;;;;;;;;22.68;27.14;97918.72;4940394;29;1221;-83
2021/08/24 04:55:48;;;;;;;;;;;;;;;22.54;27.47;97922.03;4902873;29;1321;-82
2021/08/24 04:58:13;;;;;;;;;;;;;;;22.59;27.54;97915.81;4931852;29;1201;-83
2021/08/24 05:00:39;;;;;;;;;;;;;;;22.52;27.38;97913.19;4920586;29;1228;-82
2021/08/24 05:03:06;;;;;;;;;;;;;;;22.28;27.98;97915.56;4909718;29;1680;-81
2021/08/24 05:05:32;;;;;;;;;;;;;;;22.27;27.92;97919.63;4945359;29;1224;-83
2021/08/24 05:07:57;;;;;;;;;;;;;;;22.36;27.57;97912.03;4949760;29;1161;-83
2021/08/24 05:10:23;;;;;;;;;;;;;;;22.47;27.68;97917.38;4943624;29;1137;-83
2021/08/24 05:12:49;;;;;;;;;;;;;;;22.66;27.11;97914.78;4926163;29;1177;-82
2021/08/24 05:15:14;;;;;;;;;;;;;;;22.50;27.61;97915.69;4945846;29;1226;-83
2021/08/24 05:17:40;;;;;;;;;;;;;;;22.35;27.79;97918.97;4920029;29;1185;-82
2021/08/24 05:20:18;;;;;;;;;;;;;;;22.39;27.68;97926.56;4938076;29;1165;-82
2021/08/24 05:22:44;;;;;;;;;;;;;;;22.42;27.58;97920.78;4926649;29;1307;-82
2021/08/24 05:25:10;;;;;;;;;;;;;;;22.49;27.74;97928.28;4907868;29;1298;-82
2021/08/24 05:27:35;;;;;;;;;;;;;;;22.55;27.59;97923.63;4936669;29;1895;-82
2021/08/24 05:30:02;;;;;;;;;;;;;;;22.47;27.82;97930.75;4956135;29;1382;-82
2021/08/24 05:32:28;;;;;;;;;;;;;;;22.56;27.38;97925.22;4942018;29;1307;-83
2021/08/24 05:34:57;;;;;;;;;;;;;;;22.56;27.39;97928.03;4922858;29;1208;-83
2021/08/24 05:37:23;;;;;;;;;;;;;;;22.48;27.93;97935.19;4949589;29;1286;-82
2021/08/24 05:39:48;;;;;;;;;;;;;;;22.38;27.79;97931.44;4928460;29;1181;-82
2021/08/24 05:42:16;;;;;;;;;;;;;;;22.39;28.12;97937.91;4928463;29;1189;-82
2021/08/24 05:44:42;;;;;;;;;;;;;;;22.45;28.12;97930.44;4940286;29;1161;-83
2021/08/24 05:47:07;;;;;;;;;;;;;;;22.31;27.93;97943.78;4935135;29;1899;-82
2021/08/24 05:49:33;;;;;;;;;;;;;;;22.47;27.87;97942.09;4907055;29;1163;-82
2021/08/24 05:51:59;;;;;;;;;;;;;;;22.51;27.71;97951.28;4910941;29;1217;-83
2021/08/24 05:54:24;;;;;;;;;;;;;;;22.49;27.88;97948.91;4942452;29;1201;-83
2021/08/24 05:56:50;;;;;;;;;;;;;;;22.64;27.70;97954.94;4944240;29;1224;-83
2021/08/24 05:59:15;;;;;;;;;;;;;;;22.43;28.02;97947.88;4961764;29;1219;-83
2021/08/24 06:01:41;;;;;;;;;;;;;;;22.21;28.37;97956.22;4922974;29;1178;-82
2021/08/24 06:04:07;;;;;;;;;;;;;;;22.33;28.20;97958.31;4922449;29;1193;-83
2021/08/24 06:06:33;;;;;;;;;;;;;;;22.40;27.94;97962.19;4940913;29;1903;-82
2021/08/24 06:08:58;;;;;;;;;;;;;;;22.57;27.75;97955.16;4931668;29;1196;-82
2021/08/24 06:11:25;;;;;;;;;;;;;;;22.51;27.96;97957.75;4940190;29;1371;-83
2021/08/24 06:13:50;;;;;;;;;;;;;;;22.47;28.13;97950.59;4905508;29;1247;-83
2021/08/24 06:16:16;;;;;;;;;;;;;;;22.49;27.93;97960.25;4941664;29;1184;-83
2021/08/24 06:18:41;;;;;;;;;;;;;;;22.51;28.10;97956.97;4923355;29;1252;-82
2021/08/24 06:21:07;;;;;;;;;;;;;;;22.56;27.85;97953.56;4943494;29;1232;-83
2021/08/24 06:23:32;;;;;;;;;;;;;;;22.56;27.89;97964.91;4941245;29;1201;-82
2021/08/24 06:25:57;;;;;;;;;;;;;;;22.51;27.78;97962.63;4942652;29;1915;-82
2021/08/24 06:28:23;;;;;;;;;;;;;;;22.47;28.02;97956.28;4939422;29;1153;-82
2021/08/24 06:30:49;;;;;;;;;;;;;;;22.50;27.88;97955.38;4919463;29;1260;-82
2021/08/24 06:33:15;;;;;;;;;;;;;;;22.67;27.85;97959.69;4941093;29;1197;-82
2021/08/24 06:35:40;;;;;;;;;;;;;;;22.69;27.50;97968.56;4928546;29;1261;-82
2021/08/24 06:38:05;;;;;;;;;;;;;;;22.41;28.32;97963.75;4936558;29;1133;-82
2021/08/24 06:40:31;;;;;;;;;;;;;;;22.50;28.04;97959.00;4924557;29;1225;-82
2021/08/24 06:42:56;;;;;;;;;;;;;;;22.52;28.06;97958.56;4939605;29;1283;-82
2021/08/24 06:45:24;;;;;;;;;;;;;;;22.57;27.92;97963.66;4932630;29;1287;-82
2021/08/24 06:47:49;;;;;;;;;;;;;;;22.58;27.83;97959.56;4899724;29;1880;-82
2021/08/24 06:50:15;;;;;;;;;;;;;;;22.57;27.97;97966.50;4916143;29;932;-82
2021/08/24 06:52:40;;;;;;;;;;;;;;;22.52;28.12;97965.00;4931281;29;1003;-82
2021/08/24 06:55:06;;;;;;;;;;;;;;;22.53;28.07;97965.81;4914587;29;950;-82
2021/08/24 06:57:31;;;;;;;;;;;;;;;22.60;28.03;97959.94;4948564;29;1192;-83
2021/08/24 06:59:57;;;;;;;;;;;;;;;22.48;28.48;97963.53;4926832;29;1204;-82
2021/08/24 07:02:22;;;;;;;;;;;;;;;22.44;28.37;97968.53;4937088;29;1192;-82
2021/08/24 07:04:48;;;;;;;;;;;;;;;22.41;28.58;97958.88;4929270;29;1197;-82
2021/08/24 07:07:16;;;;;;;;;;;;;;;22.40;28.55;97965.00;4919883;29;1942;-82
2021/08/24 07:09:42;;;;;;;;;;;;;;;22.39;28.42;97966.25;4936883;29;1252;-82
2021/08/24 07:12:07;;;;;;;;;;;;;;;22.45;28.46;97964.44;4935436;29;1244;-83
2021/08/24 07:14:33;;;;;;;;;;;;;;;22.46;28.26;97966.81;4922287;29;1268;-82
2021/08/24 07:16:58;;;;;;;;;;;;;;;22.50;28.57;97973.19;4937536;29;1176;-82
2021/08/24 07:19:24;;;;;;;;;;;;;;;22.54;28.44;97970.25;4918459;29;1320;-82
2021/08/24 07:21:49;;;;;;;;;;;;;;;22.47;28.39;97959.91;4939557;29;1170;-82
2021/08/24 07:24:15;;;;;;;;;;;;;;;22.57;28.29;97960.81;4940528;29;1229;-81
2021/08/24 07:26:40;;;;;;;;;;;;;;;22.50;28.22;97955.38;4936414;29;1969;-81
2021/08/24 07:29:06;;;;;;;;;;;;;;;22.51;28.58;97956.97;4936965;29;1153;-82
2021/08/24 07:31:33;;;;;;;;;;;;;;;22.60;28.23;97966.38;4925694;29;1299;-82
2021/08/24 07:33:59;;;;;;;;;;;;;;;22.57;28.23;97955.16;4916100;29;942;-82
2021/08/24 07:36:25;;;;;;;;;;;;;;;22.48;28.58;97957.84;4900092;29;1249;-82
2021/08/24 07:38:50;;;;;;;;;;;;;;;22.51;28.33;97962.63;4930732;29;878;-82
2021/08/24 07:41:16;;;;;;;;;;;;;;;22.52;28.44;97964.22;4916482;29;1266;-83
2021/08/24 07:43:44;;;;;;;;;;;;;;;22.50;28.31;97955.38;4900087;29;1175;-81
2021/08/24 07:46:09;;;;;;;;;;;;;;;22.55;28.20;97963.31;4915906;29;1962;-82
2021/08/24 07:48:35;;;;;;;;;;;;;;;22.56;28.51;97968.53;4930933;29;977;-83
2021/08/24 07:51:00;;;;;;;;;;;;;;;22.60;28.44;97963.56;4916646;29;1157;-82
2021/08/24 07:53:25;;;;;;;;;;;;;;;22.56;28.32;97967.75;4950892;29;1351;-82
2021/08/24 07:55:51;;;;;;;;;;;;;;;22.55;28.29;97969.00;4950626;29;1089;-81
2021/08/24 07:58:16;;;;;;;;;;;;;;;22.57;28.39;97969.34;4950594;29;684;-82
2021/08/24 08:00:42;;;;;;;;;;;;;;;22.64;28.32;97969.13;4950564;29;957;-83
2021/08/24 08:03:07;;;;;;;;;;;;;;;22.63;28.48;97965.47;4919533;29;1182;-83
2021/08/24 08:05:33;;;;;;;;;;;;;;;22.63;28.37;97976.03;4919278;29;1213;-82
2021/08/24 08:07:59;;;;;;;;;;;;;;;22.58;28.34;97973.75;4950021;29;1976;-82
2021/08/24 08:10:24;;;;;;;;;;;;;;;22.65;28.26;97978.44;4934551;29;940;-82
2021/08/24 08:12:51;;;;;;;;;;;;;;;22.66;28.54;97974.34;4950075;29;671;-82
2021/08/24 08:15:17;;;;;;;;;;;;;;;22.70;28.45;97967.31;4950423;29;1025;-83
2021/08/24 08:17:43;;;;;;;;;;;;;;;22.64;28.42;97971.97;4919389;29;1158;-82
2021/08/24 08:20:08;;;;;;;;;;;;;;;22.67;28.59;97965.38;4949342;29;878;-80
2021/08/24 08:22:34;;;;;;;;;;;;;;;22.59;28.28;97969.69;4934073;29;1257;-82
2021/08/24 08:25:00;;;;;;;;;;;;;;;22.57;28.57;97967.28;4918123;29;1032;-82
2021/08/24 08:27:35;;;;;;;;;;;;;;;22.65;28.39;97967.88;4951177;29;1960;-83
2021/08/24 08:30:00;;;;;;;;;;;;;;;22.63;28.34;97959.78;4934251;29;747;-82
2021/08/24 08:32:30;;;;;;;;;;;;;;;22.55;28.57;97963.31;4949905;29;619;-82
2021/08/24 08:34:56;;;;;;;;;;;;;;;22.70;28.60;97970.16;4948589;29;832;-82
2021/08/24 08:37:21;;;;;;;;;;;;;;;22.66;28.53;97958.09;4949251;29;1116;-82
2021/08/24 08:39:47;;;;;;;;;;;;;;;22.72;28.42;97956.28;4927546;29;1153;-82
2021/08/24 08:42:31;;;;;;;;;;;;;;;22.54;28.78;97956.06;4948977;29;832;-82
2021/08/24 08:45:09;;;;;;;;;;;;;;;22.63;28.60;97945.63;4933262;29;1172;-82
2021/08/24 08:47:53;;;;;;;;;;;;;;;22.56;28.62;97948.69;4949284;29;1883;-82
2021/08/24 08:50:27;;;;;;;;;;;;;;;22.55;28.73;97946.31;4948253;29;1156;-82
2021/08/24 08:53:11;;;;;;;;;;;;;;;22.64;28.63;97954.94;4949224;29;892;-82
2021/08/24 08:55:51;;;;;;;;;;;;;;;22.62;28.75;97948.91;4948833;29;600;-80
2021/08/24 08:58:50;;;;;;;;;;;;;;;22.52;29.08;97950.03;4932746;29;718;-82
2021/08/24 09:01:35;;;;;;;;;;;;;;;22.64;28.72;97952.09;4908152;29;1266;-82
2021/08/24 09:04:03;;;;;;;;;;;;;;;22.63;28.82;97953.34;4947235;29;767;-82
2021/08/24 09:06:29;;;;;;;;;;;;;;;22.66;29.15;97952.44;4932688;29;1894;-82
2021/08/24 09:08:56;;;;;;;;;;;;;;;22.58;29.06;97945.38;4948102;29;914;-82
2021/08/24 09:11:23;;;;;;;;;;;;;;;22.69;28.84;97945.06;4949023;29;1002;-82
2021/08/24 09:13:50;;;;;;;;;;;;;;;22.60;28.91;97948.59;4928451;29;1474;-82
2021/08/24 09:16:24;;;;;;;;;;;;;;;22.52;28.99;97941.53;4948230;29;1177;-82
2021/08/24 09:18:50;;;;;;;;;;;;;;;22.58;28.98;97954.69;4947406;29;1181;-81
2021/08/24 09:21:19;;;;;;;;;;;;;;;22.76;28.72;97937.13;4948000;29;1137;-82
2021/08/24 09:23:44;;;;;;;;;;;;;;;22.82;28.75;97938.13;4947305;29;1141;-82
2021/08/24 09:26:09;;;;;;;;;;;;;;;22.79;28.68;97939.03;4946650;29;1981;-82
2021/08/24 09:28:35;;;;;;;;;;;;;;;22.60;29.14;97937.25;4946888;29;1173;-81
2021/08/24 09:31:01;;;;;;;;;;;;;;;22.66;29.00;97938.25;4949330;29;1196;-82
2021/08/24 09:33:28;;;;;;;;;;;;;;;22.69;28.80;97940.19;4931547;29;1301;-81
2021/08/24 09:35:54;;;;;;;;;;;;;;;22.72;28.93;97932.81;4916707;29;1122;-82
2021/08/24 09:38:20;;;;;;;;;;;;;;;22.69;28.79;97928.84;4946701;29;1220;-82
2021/08/24 09:40:53;;;;;;;;;;;;;;;22.72;29.05;97939.28;4947589;29;1208;-82
2021/08/24 09:43:23;;;;;;;;;;;;;;;22.81;28.60;97930.88;4946849;29;1212;-82
2021/08/24 09:45:56;;;;;;;;;;;;;;;22.71;29.11;97932.03;4945306;29;1915;-82
2021/08/24 09:48:21;;;;;;;;;;;;;;;22.73;29.11;97932.34;4946908;29;1188;-82
2021/08/24 09:50:47;;;;;;;;;;;;;;;22.87;28.79;97931.88;4931452;29;1200;-82
2021/08/24 09:53:32;;;;;;;;;;;;;;;22.71;28.97;97929.19;4930726;29;1370;-82
2021/08/24 09:55:58;;;;;;;;;;;;;;;22.74;28.86;97928.28;4931921;29;1138;-81
2021/08/24 09:58:26;;;;;;;;;;;;;;;22.71;29.03;97920.66;4947418;29;743;-81
2021/08/24 10:00:55;;;;;;;;;;;;;;;22.75;29.08;97917.72;4948428;29;695;-82
2021/08/24 10:03:37;;;;;;;;;;;;;;;22.63;29.23;97919.31;4948722;29;620;-82
2021/08/24 10:06:19;;;;;;;;;;;;;;;22.62;29.14;97914.88;4948200;29;1911;-82
2021/08/24 10:08:45;;;;;;;;;;;;;;;22.70;29.21;97918.31;4946366;29;872;-82
2021/08/24 10:11:15;;;;;;;;;;;;;;;22.71;29.06;97903.66;4932065;29;1492;-82
2021/08/24 10:13:41;;;;;;;;;;;;;;;22.68;29.33;97904.56;4953768;28;1417;-81
2021/08/24 10:16:07;;;;;;;;;;;;;;;22.77;29.09;97918.84;4981552;28;873;-81
2021/08/24 10:18:33;;;;;;;;;;;;;;;22.83;28.93;97911.34;4964487;29;737;-82
2021/08/24 10:21:25;;;;;;;;;;;;;;;22.55;29.36;97912.28;4965935;29;858;-79
2021/08/24 10:23:55;;;;;;;;;;;;;;;22.69;29.06;97917.50;4950857;28;1178;-81
2021/08/24 10:26:22;;;;;;;;;;;;;;;22.60;29.17;97917.38;4982866;28;1957;-81
2021/08/24 10:28:49;;;;;;;;;;;;;;;22.87;28.78;97917.69;4965643;29;745;-82
2021/08/24 10:31:18;;;;;;;;;;;;;;;22.79;28.88;97910.66;4965935;29;909;-81
2021/08/24 10:33:54;;;;;;;;;;;;;;;22.70;29.23;97916.25;4965481;29;861;-82
2021/08/24 10:36:29;;;;;;;;;;;;;;;22.66;29.27;97911.94;4981687;28;932;-81
2021/08/24 10:38:55;;;;;;;;;;;;;;;22.50;29.44;97913.66;4981562;28;1012;-81
2021/08/24 10:41:28;;;;;;;;;;;;;;;22.64;29.33;97906.72;4965988;29;1263;-82
2021/08/24 10:43:55;;;;;;;;;;;;;;;22.72;28.92;97908.06;4965341;29;1289;-81
2021/08/24 10:46:20;;;;;;;;;;;;;;;22.74;29.26;97914.09;4965982;29;1898;-81
2021/08/24 10:48:46;;;;;;;;;;;;;;;22.73;29.08;97906.03;4981076;28;619;-81
2021/08/24 10:51:27;;;;;;;;;;;;;;;22.73;29.00;97903.97;4982080;28;917;-81
2021/08/24 10:53:56;;;;;;;;;;;;;;;22.72;28.92;97905.22;4964944;29;908;-82
2021/08/24 10:56:36;;;;;;;;;;;;;;;22.60;29.45;97897.53;4966747;29;712;-82
2021/08/24 10:59:31;;;;;;;;;;;;;;;22.87;29.00;97892.16;4965010;29;912;-82
2021/08/24 11:02:04;;;;;;;;;;;;;;;22.87;28.99;97894.22;4957177;28;1002;-83
2021/08/24 11:04:48;;;;;;;;;;;;;;;22.65;29.27;97899.81;4981116;28;682;-82
2021/08/24 11:07:26;;;;;;;;;;;;;;;22.77;29.08;97901.81;4966187;28;1979;-81
2021/08/24 11:09:55;;;;;;;;;;;;;;;22.93;29.00;97892.41;4965568;28;944;-81
2021/08/24 11:12:31;;;;;;;;;;;;;;;22.76;29.31;97891.75;4965692;29;964;-81
2021/08/24 11:15:12;;;;;;;;;;;;;;;22.70;29.34;97889.94;4980573;28;1113;-81
2021/08/24 11:17:55;;;;;;;;;;;;;;;22.96;29.03;97894.34;4980935;28;889;-82
2021/08/24 11:20:25;;;;;;;;;;;;;;;22.95;28.81;97886.28;4965669;29;1341;-81
2021/08/24 11:23:00;;;;;;;;;;;;;;;22.75;28.88;97897.88;4980660;28;900;-81
2021/08/24 11:25:32;;;;;;;;;;;;;;;22.78;29.07;97880.72;4980409;28;894;-81
2021/08/24 11:28:05;;;;;;;;;;;;;;;22.90;28.87;97887.66;4983920;28;1977;-81
2021/08/24 11:30:39;;;;;;;;;;;;;;;22.74;29.21;97880.06;4969351;29;1173;-82
2021/08/24 11:33:10;;;;;;;;;;;;;;;22.81;29.21;97870.50;4967468;29;1271;-81
2021/08/24 11:35:54;;;;;;;;;;;;;;;22.76;29.09;97888.91;4968195;29;841;-80
2021/08/24 11:38:28;;;;;;;;;;;;;;;22.76;29.35;97877.56;4967947;29;675;-81
2021/08/24 11:40:56;;;;;;;;;;;;;;;22.59;29.25;97888.25;4984960;28;929;-81
2021/08/24 11:43:31;;;;;;;;;;;;;;;22.92;28.86;97884.38;4967167;29;1397;-80
2021/08/24 11:45:56;;;;;;;;;;;;;;;22.85;29.20;97869.16;4984238;28;1898;-79
2021/08/24 11:48:23;;;;;;;;;;;;;;;22.88;28.98;97865.41;4983196;28;683;-79
2021/08/24 11:50:55;;;;;;;;;;;;;;;22.69;29.31;97869.28;4984594;28;643;-81
2021/08/24 11:53:23;;;;;;;;;;;;;;;22.66;29.25;97861.69;4967978;28;675;-81
2021/08/24 11:55:51;;;;;;;;;;;;;;;22.84;29.20;97859.03;4984202;28;854;-81
2021/08/24 11:58:17;;;;;;;;;;;;;;;22.84;28.99;97853.34;4966584;29;1215;-81
2021/08/24 12:00:48;;;;;;;;;;;;;;;22.84;29.20;97861.88;4968539;28;913;-81
2021/08/24 12:03:14;;;;;;;;;;;;;;;22.66;29.43;97855.22;4983481;28;934;-81
2021/08/24 12:05:44;;;;;;;;;;;;;;;22.67;29.32;97845.47;4968080;29;1169;-80
2021/08/24 12:08:29;;;;;;;;;;;;;;;22.72;29.27;97842.84;4983300;28;1898;-81
2021/08/24 12:10:55;;;;;;;;;;;;;;;22.83;29.13;97846.09;4968042;28;948;-81
2021/08/24 12:13:26;;;;;;;;;;;;;;;22.87;29.12;97848.81;4966252;29;1064;-80
2021/08/24 12:16:06;;;;;;;;;;;;;;;22.80;29.07;97849.06;4968700;29;675;-81
2021/08/24 12:18:32;;;;;;;;;;;;;;;22.84;29.18;97841.22;4950681;29;855;-81
2021/08/24 12:20:58;;;;;;;;;;;;;;;22.72;29.24;97837.16;4936158;29;876;-80
2021/08/24 12:23:35;;;;;;;;;;;;;;;22.82;29.38;97838.84;4951013;29;739;-81
2021/08/24 12:26:17;;;;;;;;;;;;;;;22.75;29.24;97844.78;4952017;29;1906;-81
2021/08/24 12:28:42;;;;;;;;;;;;;;;22.78;29.25;97841.00;4950317;29;1365;-81
2021/08/24 12:31:09;;;;;;;;;;;;;;;22.64;29.56;97841.50;4951606;29;695;-79
2021/08/24 12:33:41;;;;;;;;;;;;;;;22.59;29.56;97844.91;4950310;29;855;-80
2021/08/24 12:36:36;;;;;;;;;;;;;;;22.57;29.56;97833.22;4951251;29;796;-81
2021/08/24 12:39:22;;;;;;;;;;;;;;;22.67;29.65;97843.41;4967755;29;1074;-81
2021/08/24 12:41:48;;;;;;;;;;;;;;;22.74;29.63;97842.38;4950603;29;1111;-79
2021/08/24 12:44:14;;;;;;;;;;;;;;;22.75;29.58;97847.59;4949971;29;909;-80
2021/08/24 12:46:45;;;;;;;;;;;;;;;22.81;29.23;97839.31;4968197;29;1962;-81
2021/08/24 12:49:18;;;;;;;;;;;;;;;22.72;29.27;97848.50;4950886;29;628;-79
2021/08/24 12:51:46;;;;;;;;;;;;;;;22.85;29.19;97846.44;4968160;29;600;-81
2021/08/24 12:54:12;;;;;;;;;;;;;;;22.56;29.69;97852.28;4967047;29;699;-82
2021/08/24 12:56:42;;;;;;;;;;;;;;;22.68;29.78;97847.81;4951161;29;843;-81
2021/08/24 12:59:07;;;;;;;;;;;;;;;22.79;29.54;97839.75;4935105;29;783;-81
2021/08/24 13:01:33;;;;;;;;;;;;;;;22.88;29.33;97845.56;4950809;29;884;-81
2021/08/24 13:04:01;;;;;;;;;;;;;;;22.71;29.19;97846.94;4950827;29;906;-81
2021/08/24 13:06:30;;;;;;;;;;;;;;;22.59;29.59;97836.41;4935112;29;1899;-81
2021/08/24 13:09:14;;;;;;;;;;;;;;;22.85;29.21;97840.00;4934859;29;1172;-81
2021/08/24 13:11:40;;;;;;;;;;;;;;;22.90;29.07;97841.47;4968147;29;738;-81